sensor_id;sensor_type;location;lat;lon;timestamp;temperature;humidity
17236;DHT22;8734;59.272;17.780;2023-07-31T00:01:12;14.00;99.90
17236;DHT22;8734;59.272;17.780;2023-07-31T00:03:41;14.00;99.90
17236;DHT22;8734;59.272;17.780;2023-07-31T00:06:09;14.00;99.90
17236;DHT22;8734;59.272;17.780;2023-07-31T00:08:38;13.90;99.90
17236;DHT22;8734;59.272;17.780;2023-07-31T00:11:07;13.90;99.90
17236;DHT22;8734;59.272;17.780;2023-07-31T00:13:36;13.90;99.90
17236;DHT22;8734;59.272;17.780;2023-07-31T00:16:04;13.90;99.90
17236;DHT22;8734;59.272;17.780;2023-07-31T00:18:32;13.90;99.90
17236;DHT22;8734;59.272;17.780;2023-07-31T00:21:01;13.80;99.90
17236;DHT22;8734;59.272;17.780;2023-07-31T00:23:29;13.80;99.90
17236;DHT22;8734;59.272;17.780;2023-07-31T00:25:57;13.70;99.90
17236;DHT22;8734;59.272;17.780;2023-07-31T00:28:27;13.70;99.90
17236;DHT22;8734;59.272;17.780;2023-07-31T00:30:56;13.80;99.90
17236;DHT22;8734;59.272;17.780;2023-07-31T00:33:24;13.80;99.90
17236;DHT22;8734;59.272;17.780;2023-07-31T00:35:52;13.80;99.90
17236;DHT22;8734;59.272;17.780;2023-07-31T00:38:21;13.80;99.90
17236;DHT22;8734;59.272;17.780;2023-07-31T00:40:49;13.80;99.90
17236;DHT22;8734;59.272;17.780;2023-07-31T00:43:17;13.70;99.90
17236;DHT22;8734;59.272;17.780;2023-07-31T00:45:47;13.80;99.90
17236;DHT22;8734;59.272;17.780;2023-07-31T00:48:15;13.80;99.90
17236;DHT22;8734;59.272;17.780;2023-07-31T00:50:44;13.80;99.90
17236;DHT22;8734;59.272;17.780;2023-07-31T00:53:13;13.80;99.90
17236;DHT22;8734;59.272;17.780;2023-07-31T00:55:41;13.80;99.90
17236;DHT22;8734;59.272;17.780;2023-07-31T00:58:10;13.80;99.90
17236;DHT22;8734;59.272;17.780;2023-07-31T01:00:38;13.80;99.90
17236;DHT22;8734;59.272;17.780;2023-07-31T01:03:08;13.80;99.90
17236;DHT22;8734;59.272;17.780;2023-07-31T01:05:46;13.80;99.90
17236;DHT22;8734;59.272;17.780;2023-07-31T01:08:24;13.80;99.90
17236;DHT22;8734;59.272;17.780;2023-07-31T01:10:57;13.80;99.90
17236;DHT22;8734;59.272;17.780;2023-07-31T01:13:27;13.80;99.90
17236;DHT22;8734;59.272;17.780;2023-07-31T01:15:56;13.80;99.90
17236;DHT22;8734;59.272;17.780;2023-07-31T01:18:25;13.80;99.90
17236;DHT22;8734;59.272;17.780;2023-07-31T01:20:57;13.80;99.90
17236;DHT22;8734;59.272;17.780;2023-07-31T01:23:48;13.90;99.90
17236;DHT22;8734;59.272;17.780;2023-07-31T01:26:23;13.80;99.90
17236;DHT22;8734;59.272;17.780;2023-07-31T01:28:56;13.90;99.90
17236;DHT22;8734;59.272;17.780;2023-07-31T01:31:29;13.80;99.90
17236;DHT22;8734;59.272;17.780;2023-07-31T01:34:00;13.80;99.90
17236;DHT22;8734;59.272;17.780;2023-07-31T01:36:30;13.80;99.90
17236;DHT22;8734;59.272;17.780;2023-07-31T01:38:59;13.90;99.90
17236;DHT22;8734;59.272;17.780;2023-07-31T01:41:29;13.80;99.90
17236;DHT22;8734;59.272;17.780;2023-07-31T01:43:57;13.90;99.90
17236;DHT22;8734;59.272;17.780;2023-07-31T01:46:26;13.90;99.90
17236;DHT22;8734;59.272;17.780;2023-07-31T01:48:54;13.90;99.90
17236;DHT22;8734;59.272;17.780;2023-07-31T01:51:22;13.90;99.90
17236;DHT22;8734;59.272;17.780;2023-07-31T01:53:51;13.90;99.90
17236;DHT22;8734;59.272;17.780;2023-07-31T01:56:19;13.90;99.90
17236;DHT22;8734;59.272;17.780;2023-07-31T01:58:49;13.90;99.90
17236;DHT22;8734;59.272;17.780;2023-07-31T02:01:17;13.90;99.90
17236;DHT22;8734;59.272;17.780;2023-07-31T02:03:45;13.90;99.90
17236;DHT22;8734;59.272;17.780;2023-07-31T02:06:14;14.00;99.90
17236;DHT22;8734;59.272;17.780;2023-07-31T02:08:42;14.10;99.90
17236;DHT22;8734;59.272;17.780;2023-07-31T02:11:10;14.10;99.90
17236;DHT22;8734;59.272;17.780;2023-07-31T02:13:39;14.10;99.90
17236;DHT22;8734;59.272;17.780;2023-07-31T02:16:08;14.10;99.90
17236;DHT22;8734;59.272;17.780;2023-07-31T02:18:37;14.20;99.90
17236;DHT22;8734;59.272;17.780;2023-07-31T02:21:05;14.10;99.90
17236;DHT22;8734;59.272;17.780;2023-07-31T02:23:33;14.20;99.90
17236;DHT22;8734;59.272;17.780;2023-07-31T02:26:00;14.20;99.90
17236;DHT22;8734;59.272;17.780;2023-07-31T02:28:29;14.20;99.90
17236;DHT22;8734;59.272;17.780;2023-07-31T02:30:57;14.30;99.90
17236;DHT22;8734;59.272;17.780;2023-07-31T02:33:27;14.30;99.90
17236;DHT22;8734;59.272;17.780;2023-07-31T02:35:55;14.40;99.90
17236;DHT22;8734;59.272;17.780;2023-07-31T02:38:24;14.30;99.90
17236;DHT22;8734;59.272;17.780;2023-07-31T02:40:52;14.40;99.90
17236;DHT22;8734;59.272;17.780;2023-07-31T02:43:20;14.50;99.90
17236;DHT22;8734;59.272;17.780;2023-07-31T02:45:51;14.50;99.90
17236;DHT22;8734;59.272;17.780;2023-07-31T02:48:19;14.50;99.90
17236;DHT22;8734;59.272;17.780;2023-07-31T02:50:49;14.50;99.90
17236;DHT22;8734;59.272;17.780;2023-07-31T02:53:17;14.50;99.90
17236;DHT22;8734;59.272;17.780;2023-07-31T02:55:46;14.50;99.90
17236;DHT22;8734;59.272;17.780;2023-07-31T02:58:14;14.60;99.90
17236;DHT22;8734;59.272;17.780;2023-07-31T03:00:43;14.60;99.90
17236;DHT22;8734;59.272;17.780;2023-07-31T03:03:11;14.50;99.90
17236;DHT22;8734;59.272;17.780;2023-07-31T03:05:40;14.60;99.90
17236;DHT22;8734;59.272;17.780;2023-07-31T03:08:09;14.60;99.90
17236;DHT22;8734;59.272;17.780;2023-07-31T03:10:37;14.60;99.90
17236;DHT22;8734;59.272;17.780;2023-07-31T03:13:06;14.70;99.90
17236;DHT22;8734;59.272;17.780;2023-07-31T03:15:34;14.70;99.90
17236;DHT22;8734;59.272;17.780;2023-07-31T03:18:02;14.70;99.90
17236;DHT22;8734;59.272;17.780;2023-07-31T03:20:31;14.80;99.90
17236;DHT22;8734;59.272;17.780;2023-07-31T03:22:59;14.80;99.90
17236;DHT22;8734;59.272;17.780;2023-07-31T03:25:28;14.80;99.90
17236;DHT22;8734;59.272;17.780;2023-07-31T03:27:57;14.80;99.90
17236;DHT22;8734;59.272;17.780;2023-07-31T03:30:25;14.80;99.90
17236;DHT22;8734;59.272;17.780;2023-07-31T03:32:53;14.90;99.90
17236;DHT22;8734;59.272;17.780;2023-07-31T03:35:22;14.90;99.90
17236;DHT22;8734;59.272;17.780;2023-07-31T03:37:50;14.90;99.90
17236;DHT22;8734;59.272;17.780;2023-07-31T03:40:18;14.90;99.90
17236;DHT22;8734;59.272;17.780;2023-07-31T03:42:48;15.00;99.90
17236;DHT22;8734;59.272;17.780;2023-07-31T03:45:16;15.00;99.90
17236;DHT22;8734;59.272;17.780;2023-07-31T03:47:44;15.00;99.90
17236;DHT22;8734;59.272;17.780;2023-07-31T03:50:13;15.00;99.90
17236;DHT22;8734;59.272;17.780;2023-07-31T03:52:41;15.00;99.90
17236;DHT22;8734;59.272;17.780;2023-07-31T03:55:10;15.00;99.90
17236;DHT22;8734;59.272;17.780;2023-07-31T03:57:38;15.10;99.90
17236;DHT22;8734;59.272;17.780;2023-07-31T04:00:09;15.10;99.90
17236;DHT22;8734;59.272;17.780;2023-07-31T04:02:37;15.10;99.90
17236;DHT22;8734;59.272;17.780;2023-07-31T04:05:06;15.10;99.90
17236;DHT22;8734;59.272;17.780;2023-07-31T04:07:35;15.10;99.90
17236;DHT22;8734;59.272;17.780;2023-07-31T04:10:04;15.10;99.90
17236;DHT22;8734;59.272;17.780;2023-07-31T04:12:32;15.20;99.90
17236;DHT22;8734;59.272;17.780;2023-07-31T04:15:00;15.30;99.90
17236;DHT22;8734;59.272;17.780;2023-07-31T04:17:30;15.30;99.90
17236;DHT22;8734;59.272;17.780;2023-07-31T04:19:58;15.30;99.90
17236;DHT22;8734;59.272;17.780;2023-07-31T04:22:27;15.40;99.90
17236;DHT22;8734;59.272;17.780;2023-07-31T04:24:55;15.50;99.90
17236;DHT22;8734;59.272;17.780;2023-07-31T04:27:23;15.50;99.90
17236;DHT22;8734;59.272;17.780;2023-07-31T04:29:52;15.60;99.90
17236;DHT22;8734;59.272;17.780;2023-07-31T04:32:20;15.70;99.90
17236;DHT22;8734;59.272;17.780;2023-07-31T04:34:49;15.80;99.90
17236;DHT22;8734;59.272;17.780;2023-07-31T04:37:18;15.90;99.90
17236;DHT22;8734;59.272;17.780;2023-07-31T04:39:46;16.10;99.90
17236;DHT22;8734;59.272;17.780;2023-07-31T04:42:14;16.20;99.90
17236;DHT22;8734;59.272;17.780;2023-07-31T04:44:42;16.30;99.90
17236;DHT22;8734;59.272;17.780;2023-07-31T04:47:11;16.30;99.90
17236;DHT22;8734;59.272;17.780;2023-07-31T04:49:39;16.30;99.90
17236;DHT22;8734;59.272;17.780;2023-07-31T04:52:09;16.30;99.90
17236;DHT22;8734;59.272;17.780;2023-07-31T04:54:37;16.30;99.90
17236;DHT22;8734;59.272;17.780;2023-07-31T04:57:06;16.30;99.90
17236;DHT22;8734;59.272;17.780;2023-07-31T04:59:34;16.40;99.90
17236;DHT22;8734;59.272;17.780;2023-07-31T05:02:03;16.50;99.90
17236;DHT22;8734;59.272;17.780;2023-07-31T05:04:31;16.60;99.90
17236;DHT22;8734;59.272;17.780;2023-07-31T05:06:59;16.60;99.90
17236;DHT22;8734;59.272;17.780;2023-07-31T05:09:29;16.60;99.90
17236;DHT22;8734;59.272;17.780;2023-07-31T05:11:57;16.70;99.90
17236;DHT22;8734;59.272;17.780;2023-07-31T05:14:26;16.70;99.90
17236;DHT22;8734;59.272;17.780;2023-07-31T05:16:54;16.70;99.90
17236;DHT22;8734;59.272;17.780;2023-07-31T05:19:23;16.70;99.90
17236;DHT22;8734;59.272;17.780;2023-07-31T05:21:51;16.70;99.90
17236;DHT22;8734;59.272;17.780;2023-07-31T05:24:19;16.70;99.90
17236;DHT22;8734;59.272;17.780;2023-07-31T05:26:48;16.70;99.90
17236;DHT22;8734;59.272;17.780;2023-07-31T05:29:17;16.80;99.90
17236;DHT22;8734;59.272;17.780;2023-07-31T05:31:45;16.80;99.90
17236;DHT22;8734;59.272;17.780;2023-07-31T05:34:13;16.90;99.90
17236;DHT22;8734;59.272;17.780;2023-07-31T05:36:41;16.90;99.90
17236;DHT22;8734;59.272;17.780;2023-07-31T05:39:09;16.90;99.90
17236;DHT22;8734;59.272;17.780;2023-07-31T05:41:38;16.90;99.90
17236;DHT22;8734;59.272;17.780;2023-07-31T05:44:07;16.90;99.90
17236;DHT22;8734;59.272;17.780;2023-07-31T05:46:36;17.00;99.90
17236;DHT22;8734;59.272;17.780;2023-07-31T05:49:05;17.00;99.90
17236;DHT22;8734;59.272;17.780;2023-07-31T05:51:33;17.00;99.90
17236;DHT22;8734;59.272;17.780;2023-07-31T05:54:01;17.00;99.90
17236;DHT22;8734;59.272;17.780;2023-07-31T05:56:30;17.00;99.90
17236;DHT22;8734;59.272;17.780;2023-07-31T05:58:58;16.90;99.90
17236;DHT22;8734;59.272;17.780;2023-07-31T06:01:28;16.90;99.90
17236;DHT22;8734;59.272;17.780;2023-07-31T06:03:56;16.90;99.90
17236;DHT22;8734;59.272;17.780;2023-07-31T06:06:25;16.90;99.90
17236;DHT22;8734;59.272;17.780;2023-07-31T06:08:53;16.90;99.90
17236;DHT22;8734;59.272;17.780;2023-07-31T06:11:21;16.80;99.90
17236;DHT22;8734;59.272;17.780;2023-07-31T06:13:50;16.80;99.90
17236;DHT22;8734;59.272;17.780;2023-07-31T06:16:18;16.70;99.90
17236;DHT22;8734;59.272;17.780;2023-07-31T06:18:48;16.60;99.90
17236;DHT22;8734;59.272;17.780;2023-07-31T06:21:16;16.60;99.90
17236;DHT22;8734;59.272;17.780;2023-07-31T06:23:45;16.50;99.90
17236;DHT22;8734;59.272;17.780;2023-07-31T06:26:13;16.50;99.90
17236;DHT22;8734;59.272;17.780;2023-07-31T06:28:41;16.50;99.90
17236;DHT22;8734;59.272;17.780;2023-07-31T06:31:10;16.50;99.90
17236;DHT22;8734;59.272;17.780;2023-07-31T06:33:38;16.60;99.90
17236;DHT22;8734;59.272;17.780;2023-07-31T06:36:08;16.70;99.90
17236;DHT22;8734;59.272;17.780;2023-07-31T06:38:36;16.70;99.90
17236;DHT22;8734;59.272;17.780;2023-07-31T06:41:05;16.70;99.90
17236;DHT22;8734;59.272;17.780;2023-07-31T06:43:33;16.80;99.90
17236;DHT22;8734;59.272;17.780;2023-07-31T06:46:04;16.70;99.90
17236;DHT22;8734;59.272;17.780;2023-07-31T06:48:33;16.70;99.90
17236;DHT22;8734;59.272;17.780;2023-07-31T06:51:01;16.60;99.90
17236;DHT22;8734;59.272;17.780;2023-07-31T06:53:31;16.60;99.90
17236;DHT22;8734;59.272;17.780;2023-07-31T06:55:59;16.50;99.90
17236;DHT22;8734;59.272;17.780;2023-07-31T06:58:27;16.50;99.90
17236;DHT22;8734;59.272;17.780;2023-07-31T07:00:56;16.50;99.90
17236;DHT22;8734;59.272;17.780;2023-07-31T07:03:24;16.40;99.90
17236;DHT22;8734;59.272;17.780;2023-07-31T07:05:53;16.40;99.90
17236;DHT22;8734;59.272;17.780;2023-07-31T07:08:21;16.30;99.90
17236;DHT22;8734;59.272;17.780;2023-07-31T07:10:54;16.30;99.90
17236;DHT22;8734;59.272;17.780;2023-07-31T07:13:23;16.30;99.90
17236;DHT22;8734;59.272;17.780;2023-07-31T07:15:51;16.20;99.90
17236;DHT22;8734;59.272;17.780;2023-07-31T07:18:20;16.10;99.90
17236;DHT22;8734;59.272;17.780;2023-07-31T07:20:50;16.00;99.90
17236;DHT22;8734;59.272;17.780;2023-07-31T07:23:19;16.00;99.90
17236;DHT22;8734;59.272;17.780;2023-07-31T07:25:48;15.90;99.90
17236;DHT22;8734;59.272;17.780;2023-07-31T07:28:17;15.80;99.90
17236;DHT22;8734;59.272;17.780;2023-07-31T07:30:51;15.70;99.90
17236;DHT22;8734;59.272;17.780;2023-07-31T07:33:20;15.70;99.90
17236;DHT22;8734;59.272;17.780;2023-07-31T07:35:48;15.70;99.90
17236;DHT22;8734;59.272;17.780;2023-07-31T07:38:17;15.50;99.90
17236;DHT22;8734;59.272;17.780;2023-07-31T07:40:46;15.40;99.90
17236;DHT22;8734;59.272;17.780;2023-07-31T07:43:18;15.40;99.90
17236;DHT22;8734;59.272;17.780;2023-07-31T07:45:47;15.30;99.90
17236;DHT22;8734;59.272;17.780;2023-07-31T07:48:15;15.20;99.90
17236;DHT22;8734;59.272;17.780;2023-07-31T07:50:44;15.20;99.90
17236;DHT22;8734;59.272;17.780;2023-07-31T07:53:12;15.20;99.90
17236;DHT22;8734;59.272;17.780;2023-07-31T07:55:41;15.10;99.90
17236;DHT22;8734;59.272;17.780;2023-07-31T07:58:09;15.00;99.90
17236;DHT22;8734;59.272;17.780;2023-07-31T08:00:39;15.00;99.90
17236;DHT22;8734;59.272;17.780;2023-07-31T08:03:07;15.00;99.90
17236;DHT22;8734;59.272;17.780;2023-07-31T08:05:36;14.90;99.90
17236;DHT22;8734;59.272;17.780;2023-07-31T08:08:05;14.90;99.90
17236;DHT22;8734;59.272;17.780;2023-07-31T08:10:33;14.90;99.90
17236;DHT22;8734;59.272;17.780;2023-07-31T08:13:01;14.90;99.90
17236;DHT22;8734;59.272;17.780;2023-07-31T08:15:30;14.90;99.90
17236;DHT22;8734;59.272;17.780;2023-07-31T08:17:59;14.90;99.90
17236;DHT22;8734;59.272;17.780;2023-07-31T08:20:28;14.90;99.90
17236;DHT22;8734;59.272;17.780;2023-07-31T08:22:56;14.90;99.90
17236;DHT22;8734;59.272;17.780;2023-07-31T08:25:25;14.80;99.90
17236;DHT22;8734;59.272;17.780;2023-07-31T08:27:53;14.80;99.90
17236;DHT22;8734;59.272;17.780;2023-07-31T08:30:22;14.80;99.90
17236;DHT22;8734;59.272;17.780;2023-07-31T08:32:50;14.70;99.90
17236;DHT22;8734;59.272;17.780;2023-07-31T08:35:20;14.70;99.90
17236;DHT22;8734;59.272;17.780;2023-07-31T08:37:49;14.60;99.90
17236;DHT22;8734;59.272;17.780;2023-07-31T08:40:17;14.60;99.90
17236;DHT22;8734;59.272;17.780;2023-07-31T08:42:46;14.60;99.90
17236;DHT22;8734;59.272;17.780;2023-07-31T08:45:16;14.60;99.90
17236;DHT22;8734;59.272;17.780;2023-07-31T08:47:46;14.70;99.90
17236;DHT22;8734;59.272;17.780;2023-07-31T08:50:17;14.80;99.90
17236;DHT22;8734;59.272;17.780;2023-07-31T08:52:48;15.00;99.90
17236;DHT22;8734;59.272;17.780;2023-07-31T08:55:16;15.10;99.90
17236;DHT22;8734;59.272;17.780;2023-07-31T08:57:51;15.30;99.90
17236;DHT22;8734;59.272;17.780;2023-07-31T09:00:20;15.60;99.90
17236;DHT22;8734;59.272;17.780;2023-07-31T09:02:56;15.80;99.90
17236;DHT22;8734;59.272;17.780;2023-07-31T09:05:26;16.10;99.90
17236;DHT22;8734;59.272;17.780;2023-07-31T09:07:57;16.50;99.90
17236;DHT22;8734;59.272;17.780;2023-07-31T09:10:26;16.80;99.90
17236;DHT22;8734;59.272;17.780;2023-07-31T09:12:55;17.10;99.90
17236;DHT22;8734;59.272;17.780;2023-07-31T09:15:24;17.20;99.90
17236;DHT22;8734;59.272;17.780;2023-07-31T09:18:07;17.30;99.90
17236;DHT22;8734;59.272;17.780;2023-07-31T09:20:36;17.50;99.90
17236;DHT22;8734;59.272;17.780;2023-07-31T09:23:08;17.60;99.90
17236;DHT22;8734;59.272;17.780;2023-07-31T09:25:37;17.70;99.90
17236;DHT22;8734;59.272;17.780;2023-07-31T09:28:06;17.80;99.90
17236;DHT22;8734;59.272;17.780;2023-07-31T09:30:46;17.90;99.90
17236;DHT22;8734;59.272;17.780;2023-07-31T09:33:15;18.00;99.90
17236;DHT22;8734;59.272;17.780;2023-07-31T09:35:44;18.00;99.90
17236;DHT22;8734;59.272;17.780;2023-07-31T09:38:14;18.10;99.90
17236;DHT22;8734;59.272;17.780;2023-07-31T09:40:44;18.10;99.90
17236;DHT22;8734;59.272;17.780;2023-07-31T09:43:13;18.20;99.90
17236;DHT22;8734;59.272;17.780;2023-07-31T09:45:45;18.10;99.90
17236;DHT22;8734;59.272;17.780;2023-07-31T09:48:16;18.20;99.90
17236;DHT22;8734;59.272;17.780;2023-07-31T09:50:46;18.20;99.90
17236;DHT22;8734;59.272;17.780;2023-07-31T09:53:16;18.20;99.90
17236;DHT22;8734;59.272;17.780;2023-07-31T09:55:48;18.30;99.90
17236;DHT22;8734;59.272;17.780;2023-07-31T09:58:16;18.40;99.90
17236;DHT22;8734;59.272;17.780;2023-07-31T10:00:45;18.30;99.90
17236;DHT22;8734;59.272;17.780;2023-07-31T10:03:14;18.50;99.90
17236;DHT22;8734;59.272;17.780;2023-07-31T10:05:50;18.50;99.90
17236;DHT22;8734;59.272;17.780;2023-07-31T10:08:28;18.70;99.90
17236;DHT22;8734;59.272;17.780;2023-07-31T10:10:59;18.80;99.90
17236;DHT22;8734;59.272;17.780;2023-07-31T10:13:28;18.80;99.90
17236;DHT22;8734;59.272;17.780;2023-07-31T10:15:59;18.70;99.90
17236;DHT22;8734;59.272;17.780;2023-07-31T10:18:28;18.90;99.90
17236;DHT22;8734;59.272;17.780;2023-07-31T10:20:57;18.90;99.90
17236;DHT22;8734;59.272;17.780;2023-07-31T10:23:27;18.90;99.90
17236;DHT22;8734;59.272;17.780;2023-07-31T10:25:57;18.90;99.90
17236;DHT22;8734;59.272;17.780;2023-07-31T10:28:27;18.90;99.90
17236;DHT22;8734;59.272;17.780;2023-07-31T10:30:57;18.90;99.90
17236;DHT22;8734;59.272;17.780;2023-07-31T10:33:26;18.90;99.90
17236;DHT22;8734;59.272;17.780;2023-07-31T10:36:12;19.00;99.90
17236;DHT22;8734;59.272;17.780;2023-07-31T10:38:42;19.10;99.90
17236;DHT22;8734;59.272;17.780;2023-07-31T10:41:10;19.00;99.90
17236;DHT22;8734;59.272;17.780;2023-07-31T10:43:38;19.00;99.90
17236;DHT22;8734;59.272;17.780;2023-07-31T10:46:07;18.90;99.90
17236;DHT22;8734;59.272;17.780;2023-07-31T10:48:37;18.80;99.90
17236;DHT22;8734;59.272;17.780;2023-07-31T10:51:09;18.60;99.90
17236;DHT22;8734;59.272;17.780;2023-07-31T10:53:38;18.40;99.90
17236;DHT22;8734;59.272;17.780;2023-07-31T10:56:09;18.30;99.90
17236;DHT22;8734;59.272;17.780;2023-07-31T10:58:39;18.20;99.90
17236;DHT22;8734;59.272;17.780;2023-07-31T11:01:11;18.20;99.90
17236;DHT22;8734;59.272;17.780;2023-07-31T11:03:46;18.30;99.90
17236;DHT22;8734;59.272;17.780;2023-07-31T11:06:16;18.20;99.90
17236;DHT22;8734;59.272;17.780;2023-07-31T11:08:47;18.40;99.90
17236;DHT22;8734;59.272;17.780;2023-07-31T11:11:18;18.40;99.90
17236;DHT22;8734;59.272;17.780;2023-07-31T11:13:48;18.50;99.90
17236;DHT22;8734;59.272;17.780;2023-07-31T11:16:18;18.50;99.90
17236;DHT22;8734;59.272;17.780;2023-07-31T11:18:47;18.40;99.90
17236;DHT22;8734;59.272;17.780;2023-07-31T11:21:18;18.40;99.90
17236;DHT22;8734;59.272;17.780;2023-07-31T11:23:47;18.40;99.90
17236;DHT22;8734;59.272;17.780;2023-07-31T11:26:17;18.30;99.90
17236;DHT22;8734;59.272;17.780;2023-07-31T11:28:47;18.40;99.90
17236;DHT22;8734;59.272;17.780;2023-07-31T11:31:16;18.30;99.90
17236;DHT22;8734;59.272;17.780;2023-07-31T11:33:45;18.30;99.90
17236;DHT22;8734;59.272;17.780;2023-07-31T11:36:15;18.30;99.90
17236;DHT22;8734;59.272;17.780;2023-07-31T11:38:44;18.40;99.90
17236;DHT22;8734;59.272;17.780;2023-07-31T11:41:16;18.30;99.90
17236;DHT22;8734;59.272;17.780;2023-07-31T11:43:45;18.30;99.90
17236;DHT22;8734;59.272;17.780;2023-07-31T11:46:14;18.20;99.90
17236;DHT22;8734;59.272;17.780;2023-07-31T11:48:43;18.20;99.90
17236;DHT22;8734;59.272;17.780;2023-07-31T11:51:13;18.20;99.90
17236;DHT22;8734;59.272;17.780;2023-07-31T11:53:43;18.10;99.90
17236;DHT22;8734;59.272;17.780;2023-07-31T11:56:15;17.90;99.90
17236;DHT22;8734;59.272;17.780;2023-07-31T11:58:46;17.80;99.90
17236;DHT22;8734;59.272;17.780;2023-07-31T12:01:18;17.70;99.90
17236;DHT22;8734;59.272;17.780;2023-07-31T12:03:47;17.70;99.90
17236;DHT22;8734;59.272;17.780;2023-07-31T12:06:16;17.60;99.90
17236;DHT22;8734;59.272;17.780;2023-07-31T12:08:44;17.60;99.90
17236;DHT22;8734;59.272;17.780;2023-07-31T12:11:13;17.50;99.90
17236;DHT22;8734;59.272;17.780;2023-07-31T12:13:42;17.50;99.90
17236;DHT22;8734;59.272;17.780;2023-07-31T12:16:11;17.50;99.90
17236;DHT22;8734;59.272;17.780;2023-07-31T12:18:39;17.60;99.90
17236;DHT22;8734;59.272;17.780;2023-07-31T12:21:09;17.60;99.90
17236;DHT22;8734;59.272;17.780;2023-07-31T12:23:38;17.70;99.90
17236;DHT22;8734;59.272;17.780;2023-07-31T12:26:10;17.70;99.90
17236;DHT22;8734;59.272;17.780;2023-07-31T12:28:41;17.70;99.90
17236;DHT22;8734;59.272;17.780;2023-07-31T12:31:12;17.70;99.90
17236;DHT22;8734;59.272;17.780;2023-07-31T12:33:41;17.70;99.90
17236;DHT22;8734;59.272;17.780;2023-07-31T12:36:11;17.70;99.90
17236;DHT22;8734;59.272;17.780;2023-07-31T12:38:40;17.70;99.90
17236;DHT22;8734;59.272;17.780;2023-07-31T12:41:09;17.70;99.90
17236;DHT22;8734;59.272;17.780;2023-07-31T12:43:38;17.60;99.90
17236;DHT22;8734;59.272;17.780;2023-07-31T12:46:07;17.60;99.90
17236;DHT22;8734;59.272;17.780;2023-07-31T12:48:38;17.50;99.90
17236;DHT22;8734;59.272;17.780;2023-07-31T12:51:07;17.40;99.90
17236;DHT22;8734;59.272;17.780;2023-07-31T12:53:35;17.30;99.90
17236;DHT22;8734;59.272;17.780;2023-07-31T12:56:04;17.20;99.90
17236;DHT22;8734;59.272;17.780;2023-07-31T12:58:32;17.20;99.90
17236;DHT22;8734;59.272;17.780;2023-07-31T13:01:00;17.10;99.90
17236;DHT22;8734;59.272;17.780;2023-07-31T13:03:29;17.10;99.90
17236;DHT22;8734;59.272;17.780;2023-07-31T13:05:59;17.00;99.90
17236;DHT22;8734;59.272;17.780;2023-07-31T13:08:27;16.90;99.90
17236;DHT22;8734;59.272;17.780;2023-07-31T13:10:56;16.80;99.90
17236;DHT22;8734;59.272;17.780;2023-07-31T13:13:24;16.70;99.90
17236;DHT22;8734;59.272;17.780;2023-07-31T13:15:52;16.70;99.90
17236;DHT22;8734;59.272;17.780;2023-07-31T13:18:21;16.70;99.90
17236;DHT22;8734;59.272;17.780;2023-07-31T13:20:49;16.60;99.90
17236;DHT22;8734;59.272;17.780;2023-07-31T13:23:18;16.70;99.90
17236;DHT22;8734;59.272;17.780;2023-07-31T13:25:47;16.80;99.90
17236;DHT22;8734;59.272;17.780;2023-07-31T13:28:15;16.80;99.90
17236;DHT22;8734;59.272;17.780;2023-07-31T13:30:43;16.90;99.90
17236;DHT22;8734;59.272;17.780;2023-07-31T13:33:13;16.90;99.90
17236;DHT22;8734;59.272;17.780;2023-07-31T13:36:01;16.90;99.90
17236;DHT22;8734;59.272;17.780;2023-07-31T13:38:31;16.90;99.90
17236;DHT22;8734;59.272;17.780;2023-07-31T13:40:59;16.90;99.90
17236;DHT22;8734;59.272;17.780;2023-07-31T13:43:27;16.90;99.90
17236;DHT22;8734;59.272;17.780;2023-07-31T13:45:55;16.80;99.90
17236;DHT22;8734;59.272;17.780;2023-07-31T13:48:24;16.70;99.90
17236;DHT22;8734;59.272;17.780;2023-07-31T13:50:52;16.60;99.90
17236;DHT22;8734;59.272;17.780;2023-07-31T13:53:20;16.60;99.90
17236;DHT22;8734;59.272;17.780;2023-07-31T13:55:50;16.70;99.90
17236;DHT22;8734;59.272;17.780;2023-07-31T13:58:18;16.70;99.90
17236;DHT22;8734;59.272;17.780;2023-07-31T14:00:47;16.80;99.90
17236;DHT22;8734;59.272;17.780;2023-07-31T14:03:15;16.80;99.90
17236;DHT22;8734;59.272;17.780;2023-07-31T14:05:43;16.90;99.90
17236;DHT22;8734;59.272;17.780;2023-07-31T14:08:12;16.80;99.90
17236;DHT22;8734;59.272;17.780;2023-07-31T14:10:40;16.80;99.90
17236;DHT22;8734;59.272;17.780;2023-07-31T14:13:10;16.90;99.90
17236;DHT22;8734;59.272;17.780;2023-07-31T14:15:39;17.10;99.90
17236;DHT22;8734;59.272;17.780;2023-07-31T14:18:07;17.10;99.90
17236;DHT22;8734;59.272;17.780;2023-07-31T14:20:36;17.10;99.90
17236;DHT22;8734;59.272;17.780;2023-07-31T14:23:04;17.20;99.90
17236;DHT22;8734;59.272;17.780;2023-07-31T14:25:32;17.20;99.90
17236;DHT22;8734;59.272;17.780;2023-07-31T14:28:01;17.30;99.90
17236;DHT22;8734;59.272;17.780;2023-07-31T14:30:30;17.40;99.90
17236;DHT22;8734;59.272;17.780;2023-07-31T14:32:59;17.50;99.90
17236;DHT22;8734;59.272;17.780;2023-07-31T14:35:29;17.40;99.90
17236;DHT22;8734;59.272;17.780;2023-07-31T14:37:57;17.40;99.90
17236;DHT22;8734;59.272;17.780;2023-07-31T14:40:26;17.40;99.90
17236;DHT22;8734;59.272;17.780;2023-07-31T14:42:54;17.50;99.90
17236;DHT22;8734;59.272;17.780;2023-07-31T14:45:22;17.40;99.90
17236;DHT22;8734;59.272;17.780;2023-07-31T14:47:52;17.40;99.90
17236;DHT22;8734;59.272;17.780;2023-07-31T14:50:21;17.40;99.90
17236;DHT22;8734;59.272;17.780;2023-07-31T14:52:50;17.40;99.90
17236;DHT22;8734;59.272;17.780;2023-07-31T14:55:18;17.50;99.90
17236;DHT22;8734;59.272;17.780;2023-07-31T14:57:47;17.50;99.90
17236;DHT22;8734;59.272;17.780;2023-07-31T15:00:15;17.40;99.90
17236;DHT22;8734;59.272;17.780;2023-07-31T15:02:44;17.30;99.90
17236;DHT22;8734;59.272;17.780;2023-07-31T15:05:13;17.40;99.90
17236;DHT22;8734;59.272;17.780;2023-07-31T15:07:42;17.50;99.90
17236;DHT22;8734;59.272;17.780;2023-07-31T15:10:10;17.60;99.90
17236;DHT22;8734;59.272;17.780;2023-07-31T15:12:40;17.60;99.90
17236;DHT22;8734;59.272;17.780;2023-07-31T15:15:09;17.60;99.90
17236;DHT22;8734;59.272;17.780;2023-07-31T15:17:37;17.60;99.90
17236;DHT22;8734;59.272;17.780;2023-07-31T15:20:06;17.50;99.90
17236;DHT22;8734;59.272;17.780;2023-07-31T15:22:36;17.50;99.90
17236;DHT22;8734;59.272;17.780;2023-07-31T15:25:05;17.50;99.90
17236;DHT22;8734;59.272;17.780;2023-07-31T15:27:34;17.50;99.90
17236;DHT22;8734;59.272;17.780;2023-07-31T15:30:03;17.50;99.90
17236;DHT22;8734;59.272;17.780;2023-07-31T15:32:32;17.50;99.90
17236;DHT22;8734;59.272;17.780;2023-07-31T15:35:00;17.40;99.90
17236;DHT22;8734;59.272;17.780;2023-07-31T15:37:29;17.30;99.90
17236;DHT22;8734;59.272;17.780;2023-07-31T15:39:58;17.30;99.90
17236;DHT22;8734;59.272;17.780;2023-07-31T15:42:27;17.30;99.90